createdAt,value
2019-02-03T00:02:23.017Z,97.60
2019-02-03T00:04:52.652Z,97.50
2019-02-03T00:07:22.614Z,97.50
2019-02-03T00:09:52.242Z,97.60
2019-02-03T00:12:21.972Z,97.60
2019-02-03T00:14:51.539Z,97.40
2019-02-03T00:17:21.409Z,97.40
2019-02-03T00:19:51.018Z,97.40
2019-02-03T00:22:20.756Z,97.30
2019-02-03T00:24:50.353Z,97.30
2019-02-03T00:27:20.070Z,97.30
2019-02-03T00:29:49.579Z,97.30
2019-02-03T00:32:19.266Z,97.30
2019-02-03T00:34:48.834Z,97.20
2019-02-03T00:37:18.569Z,97.30
2019-02-03T00:39:48.368Z,96.90
2019-02-03T00:42:17.915Z,96.80
2019-02-03T00:44:47.566Z,96.80
2019-02-03T00:47:17.112Z,96.80
2019-02-03T00:49:46.782Z,96.70
2019-02-03T00:52:17.613Z,96.60
2019-02-03T00:54:48.234Z,96.60
2019-02-03T00:57:18.809Z,96.60
2019-02-03T00:59:48.458Z,96.50
2019-02-03T01:02:19.005Z,96.70
2019-02-03T01:04:48.881Z,96.50
2019-02-03T01:07:27.270Z,96.30
2019-02-03T01:09:50.728Z,96.20
2019-02-03T01:12:20.400Z,96.40
2019-02-03T01:14:49.944Z,96.40
2019-02-03T01:17:20.088Z,96.60
2019-02-03T01:19:49.611Z,96.50
2019-02-03T01:22:20.305Z,96.80
2019-02-03T01:24:49.842Z,96.80
2019-02-03T01:27:19.485Z,96.70
2019-02-03T01:29:49.053Z,96.60
2019-02-03T01:32:18.967Z,96.60
2019-02-03T01:34:48.578Z,96.90
2019-02-03T01:37:18.109Z,97.00
2019-02-03T01:39:47.784Z,97.20
2019-02-03T01:42:17.444Z,97.20
2019-02-03T01:44:47.270Z,96.90
2019-02-03T01:47:16.809Z,97.00
2019-02-03T01:49:46.436Z,96.90
2019-02-03T01:52:15.955Z,97.00
2019-02-03T01:54:45.618Z,97.00
2019-02-03T01:57:15.604Z,97.20
2019-02-03T01:59:45.227Z,97.30
2019-02-03T02:02:14.828Z,97.40
2019-02-03T02:04:46.396Z,97.20
2019-02-03T02:07:16.031Z,97.20
2019-02-03T02:09:45.712Z,97.20
2019-02-03T02:12:19.397Z,97.30
2019-02-03T02:14:49.351Z,97.30
2019-02-03T02:17:19.130Z,97.40
2019-02-03T02:19:51.053Z,97.60
2019-02-03T02:22:24.052Z,97.40
2019-02-03T02:24:56.791Z,97.30
2019-02-03T02:27:29.471Z,97.20
2019-02-03T02:30:03.347Z,97.40
2019-02-03T02:32:36.100Z,97.60
2019-02-03T02:35:10.335Z,97.10
2019-02-03T02:37:48.859Z,97.10
2019-02-03T02:40:26.165Z,96.80
2019-02-03T02:43:01.319Z,97.00
2019-02-03T02:45:34.441Z,97.10
2019-02-03T02:48:11.596Z,97.00
2019-02-03T02:50:46.431Z,96.70
2019-02-03T02:53:18.584Z,96.60
2019-02-03T02:55:51.189Z,96.80
2019-02-03T02:58:24.695Z,96.50
2019-02-03T03:00:57.196Z,96.60
2019-02-03T03:03:30.832Z,96.50
2019-02-03T03:17:39.914Z,96.70
2019-02-03T03:20:10.731Z,96.70
2019-02-03T03:22:40.287Z,96.70
2019-02-03T03:25:11.597Z,96.50
2019-02-03T03:27:41.210Z,96.50
2019-02-03T03:30:23.793Z,96.40
2019-02-03T03:32:53.676Z,96.50
2019-02-03T03:35:23.609Z,96.60
2019-02-03T03:37:54.224Z,96.60
2019-02-03T03:40:25.745Z,96.60
2019-02-03T03:42:55.789Z,96.50
2019-02-03T03:45:25.806Z,96.80
2019-02-03T03:47:55.548Z,96.80
2019-02-03T03:50:25.187Z,96.80
2019-02-03T03:52:54.793Z,96.80
2019-02-03T03:55:24.731Z,96.60
2019-02-03T03:57:54.361Z,97.00
2019-02-03T04:00:25.305Z,96.90
2019-02-03T04:02:54.982Z,96.90
2019-02-03T04:05:25.828Z,96.90
2019-02-03T04:07:55.454Z,96.80
2019-02-03T04:10:25.895Z,96.80
2019-02-03T04:12:56.730Z,96.90
2019-02-03T04:15:28.064Z,97.00
2019-02-03T04:17:57.663Z,96.90
2019-02-03T04:20:28.937Z,96.90
2019-02-03T04:22:58.695Z,97.00
2019-02-03T04:25:28.268Z,97.00
2019-02-03T04:27:58.292Z,97.20
2019-02-03T04:30:28.074Z,97.40
2019-02-03T04:32:58.028Z,97.50
2019-02-03T04:35:28.603Z,97.50
2019-02-03T04:37:58.293Z,97.60
2019-02-03T04:40:28.681Z,97.60
2019-02-03T04:42:58.362Z,97.70
2019-02-03T04:45:27.958Z,97.70
2019-02-03T04:47:57.727Z,97.80
2019-02-03T04:50:27.402Z,98.00
2019-02-03T04:52:57.229Z,97.80
2019-02-03T04:55:26.878Z,97.80
2019-02-03T04:57:56.572Z,97.90
2019-02-03T05:00:26.323Z,97.90
2019-02-03T05:02:55.923Z,97.70
2019-02-03T05:05:26.153Z,97.80
2019-02-03T05:07:56.068Z,97.60
2019-02-03T05:10:25.801Z,97.50
2019-02-03T05:12:55.429Z,97.40
2019-02-03T05:15:25.334Z,97.30
2019-02-03T05:17:55.338Z,97.30
2019-02-03T05:20:29.067Z,97.20
2019-02-03T05:22:58.608Z,97.30
2019-02-03T05:25:29.111Z,97.10
2019-02-03T05:27:58.746Z,97.00
2019-02-03T05:30:30.471Z,97.10
2019-02-03T05:33:00.337Z,97.10
2019-02-03T05:35:29.960Z,97.30
2019-02-03T05:37:59.596Z,97.40
2019-02-03T05:40:30.155Z,97.30
2019-02-03T05:42:59.832Z,97.60
2019-02-03T05:45:30.436Z,97.50
2019-02-03T05:48:00.100Z,97.60
2019-02-03T05:50:30.648Z,97.60
2019-02-03T05:53:00.315Z,97.90
2019-02-03T05:55:30.045Z,97.90
2019-02-03T05:57:59.784Z,98.00
2019-02-03T06:00:38.059Z,98.00
2019-02-03T06:03:08.170Z,98.20
2019-02-03T06:05:37.857Z,98.10
2019-02-03T06:08:08.737Z,98.40
2019-02-03T06:10:39.304Z,98.40
2019-02-03T06:13:08.999Z,98.30
2019-02-03T06:15:38.636Z,98.20
2019-02-03T06:18:08.405Z,98.20
2019-02-03T06:20:39.099Z,98.20
2019-02-03T06:23:08.793Z,98.00
2019-02-03T06:25:39.455Z,98.10
2019-02-03T06:28:10.038Z,98.20
2019-02-03T06:31:19.062Z,98.30
2019-02-03T06:33:52.749Z,98.60
2019-02-03T06:36:23.004Z,98.70
2019-02-03T06:38:53.549Z,98.70
2019-02-03T06:41:23.105Z,98.80
2019-02-03T06:43:52.836Z,98.90
2019-02-03T06:46:34.823Z,99.00
2019-02-03T06:49:07.533Z,98.90
2019-02-03T06:51:37.126Z,99.00
2019-02-03T06:54:06.916Z,99.00
2019-02-03T06:56:36.626Z,99.20
2019-02-03T06:59:06.361Z,99.00
2019-02-03T07:01:36.052Z,98.90
2019-02-03T07:04:06.540Z,99.00
2019-02-03T07:06:36.579Z,98.90
2019-02-03T07:09:09.340Z,98.80
2019-02-03T07:11:39.188Z,98.90
2019-02-03T07:14:08.827Z,99.10
2019-02-03T07:16:40.916Z,99.20
2019-02-03T07:19:09.797Z,99.10
2019-02-03T07:21:39.780Z,99.30
2019-02-03T07:24:09.448Z,99.20
2019-02-03T07:26:39.000Z,99.30
2019-02-03T07:29:08.661Z,99.30
2019-02-03T07:31:38.221Z,99.30
2019-02-03T07:34:08.911Z,99.40
2019-02-03T07:36:38.538Z,99.30
2019-02-03T07:39:09.860Z,99.40
2019-02-03T07:41:39.527Z,99.50
2019-02-03T07:44:09.139Z,99.60
2019-02-03T07:46:38.882Z,99.80
2019-02-03T07:49:09.465Z,99.60
2019-02-03T07:51:39.266Z,99.70
2019-02-03T07:54:08.992Z,99.60
2019-02-03T07:56:38.650Z,99.40
2019-02-03T07:59:09.660Z,99.50
2019-02-03T08:01:40.320Z,99.50
2019-02-03T08:04:10.144Z,99.40
2019-02-03T08:06:39.800Z,99.60
2019-02-03T08:09:10.922Z,99.50
2019-02-03T08:11:40.543Z,99.60
2019-02-03T08:14:10.457Z,99.70
2019-02-03T08:16:40.046Z,99.70
2019-02-03T08:19:09.890Z,99.60
2019-02-03T08:21:39.740Z,99.70
2019-02-03T08:24:09.476Z,99.90
2019-02-03T08:26:40.178Z,99.80
2019-02-03T08:29:10.008Z,99.90
2019-02-03T08:31:39.729Z,99.70
2019-02-03T08:34:09.395Z,99.80
2019-02-03T08:36:39.102Z,99.80
2019-02-03T08:39:09.786Z,99.70
2019-02-03T08:41:39.524Z,99.80
2019-02-03T08:44:09.157Z,99.80
2019-02-03T08:46:38.815Z,99.60
2019-02-03T08:49:08.436Z,99.60
2019-02-03T08:51:39.420Z,99.60
2019-02-03T08:54:09.486Z,99.70
2019-02-03T08:56:39.456Z,99.80
2019-02-03T08:59:09.109Z,99.40
2019-02-03T09:01:38.719Z,99.40
2019-02-03T09:04:08.459Z,99.20
2019-02-03T09:06:38.949Z,99.20
2019-02-03T09:09:10.777Z,99.40
2019-02-03T09:11:40.376Z,99.60
2019-02-03T09:14:10.041Z,99.50
2019-02-03T09:16:39.667Z,99.50
2019-02-03T09:19:10.353Z,99.30
2019-02-03T09:21:39.981Z,99.00
2019-02-03T09:24:10.753Z,99.00
2019-02-03T09:26:40.403Z,99.10
2019-02-03T09:29:10.074Z,98.90
2019-02-03T09:31:40.056Z,99.20
2019-02-03T09:34:09.775Z,99.30
2019-02-03T09:36:39.439Z,99.40
2019-02-03T09:39:12.872Z,99.40
2019-02-03T09:41:42.614Z,99.50
2019-02-03T09:44:12.329Z,99.40
2019-02-03T09:46:42.559Z,99.40
2019-02-03T09:49:12.157Z,99.30
2019-02-03T09:51:41.733Z,99.30
2019-02-03T09:54:11.421Z,99.20
2019-02-03T09:56:42.150Z,99.50
2019-02-03T09:59:12.087Z,99.20
2019-02-03T10:01:42.895Z,99.30
2019-02-03T10:04:12.549Z,99.40
2019-02-03T10:06:42.253Z,99.40
2019-02-03T10:09:12.400Z,99.10
2019-02-03T10:11:42.014Z,98.90
2019-02-03T10:14:11.792Z,98.90
2019-02-03T10:16:41.401Z,99.20
2019-02-03T10:19:11.104Z,98.90
2019-02-03T10:21:40.765Z,98.90
2019-02-03T10:24:10.490Z,98.90
2019-02-03T10:26:41.323Z,99.00
2019-02-03T10:29:11.064Z,99.20
2019-02-03T10:31:40.864Z,99.20
2019-02-03T10:34:10.639Z,99.00
2019-02-03T10:36:40.429Z,99.00
2019-02-03T10:39:10.951Z,98.90
2019-02-03T10:41:40.694Z,98.80
2019-02-03T10:44:10.519Z,98.60
2019-02-03T10:46:40.210Z,98.60
2019-02-03T10:49:09.805Z,98.70
2019-02-03T10:51:39.459Z,98.70
2019-02-03T10:54:10.241Z,98.80
2019-02-03T10:56:40.003Z,98.70
2019-02-03T10:59:09.635Z,98.40
2019-02-03T11:01:39.512Z,98.30
2019-02-03T11:04:09.221Z,98.20
2019-02-03T11:06:38.946Z,98.00
2019-02-03T11:09:10.548Z,98.50
2019-02-03T11:11:40.150Z,98.30
2019-02-03T11:14:10.319Z,98.40
2019-02-03T11:16:40.774Z,98.30
2019-02-03T11:19:10.496Z,98.30
2019-02-03T11:21:40.435Z,98.50
2019-02-03T11:24:10.147Z,98.50
2019-02-03T11:26:39.735Z,98.80
2019-02-03T11:29:09.392Z,99.00
2019-02-03T11:31:39.056Z,99.00
2019-02-03T11:34:08.723Z,99.00
2019-02-03T11:36:38.366Z,99.00
2019-02-03T11:39:09.338Z,99.10
2019-02-03T11:41:48.670Z,98.80
2019-02-03T11:44:10.503Z,98.60
2019-02-03T11:46:40.355Z,98.30
2019-02-03T11:49:10.257Z,98.50
2019-02-03T11:51:40.291Z,98.80
2019-02-03T11:54:10.190Z,98.70
2019-02-03T11:56:41.192Z,98.70
2019-02-03T11:59:10.955Z,98.90
2019-02-03T12:01:40.810Z,98.80
2019-02-03T12:04:10.881Z,99.00
2019-02-03T12:06:40.735Z,98.80
2019-02-03T12:09:10.917Z,98.80
2019-02-03T12:11:41.794Z,98.80
2019-02-03T12:14:11.575Z,98.80
2019-02-03T12:16:41.429Z,98.90
2019-02-03T12:19:11.131Z,98.90
2019-02-03T12:21:41.038Z,99.00
2019-02-03T12:24:10.657Z,99.00
2019-02-03T12:26:40.390Z,99.10
2019-02-03T12:29:11.125Z,99.20
2019-02-03T12:31:40.968Z,99.00
2019-02-03T12:34:11.955Z,98.90
2019-02-03T12:36:41.798Z,99.10
2019-02-03T12:39:11.750Z,98.70
2019-02-03T12:41:41.550Z,99.00
2019-02-03T12:44:11.426Z,98.80
2019-02-03T12:46:41.180Z,98.60
2019-02-03T12:49:10.986Z,98.30
2019-02-03T12:51:40.835Z,98.10
2019-02-03T12:54:10.622Z,98.20
2019-02-03T12:56:40.541Z,98.30
2019-02-03T12:59:10.337Z,98.30
2019-02-03T13:01:40.288Z,98.50
2019-02-03T13:04:10.072Z,98.40
2019-02-03T13:06:40.001Z,98.30
2019-02-03T13:09:12.046Z,98.30
2019-02-03T13:11:43.903Z,98.40
2019-02-03T13:14:13.730Z,98.10
2019-02-03T13:16:43.606Z,98.00
2019-02-03T13:19:15.653Z,98.10
2019-02-03T13:21:45.097Z,98.60
2019-02-03T13:24:14.864Z,98.50
2019-02-03T13:26:44.622Z,97.90
2019-02-03T13:29:14.575Z,97.90
2019-02-03T13:31:44.486Z,98.30
2019-02-03T13:34:14.691Z,98.50
2019-02-03T13:42:02.557Z,98.40
2019-02-03T13:44:32.539Z,98.30
2019-02-03T13:47:02.197Z,98.00
2019-02-03T13:49:31.988Z,98.00
2019-02-03T13:52:01.613Z,97.80
2019-02-03T13:54:31.283Z,97.70
2019-02-03T13:57:01.175Z,97.90
2019-02-03T13:59:30.912Z,98.20
2019-02-03T14:02:00.497Z,98.10
2019-02-03T14:04:30.172Z,98.10
2019-02-03T14:06:59.884Z,98.10
2019-02-03T14:09:29.789Z,97.80
2019-02-03T14:11:59.404Z,97.90
2019-02-03T14:14:29.123Z,97.80
2019-02-03T14:16:58.723Z,97.90
2019-02-03T14:19:28.441Z,97.90
2019-02-03T14:21:57.980Z,98.00
2019-02-03T14:24:27.701Z,98.10
2019-02-03T14:26:58.319Z,98.00
2019-02-03T14:29:28.007Z,98.00
2019-02-03T14:31:57.581Z,98.30
2019-02-03T14:34:27.317Z,98.20
2019-02-03T14:36:57.153Z,98.10
2019-02-03T14:39:26.863Z,98.10
2019-02-03T14:41:56.479Z,98.30
2019-02-03T14:44:26.260Z,98.30
2019-02-03T14:46:55.889Z,98.10
2019-02-03T14:49:25.735Z,98.00
2019-02-03T14:51:55.363Z,97.90
2019-02-03T14:54:25.109Z,97.80
2019-02-03T14:56:54.875Z,97.90
2019-02-03T14:59:24.534Z,98.30
2019-02-03T15:01:54.098Z,98.20
2019-02-03T15:04:23.867Z,98.10
2019-02-03T15:06:53.377Z,97.90
2019-02-03T15:09:24.124Z,98.00
2019-02-03T15:11:53.753Z,98.10
2019-02-03T15:14:23.456Z,98.30
2019-02-03T15:16:53.113Z,98.60
2019-02-03T15:19:22.890Z,98.40
2019-02-03T15:21:52.495Z,98.30
2019-02-03T15:24:22.149Z,98.40
2019-02-03T15:26:51.817Z,98.00
2019-02-03T15:29:21.647Z,98.00
2019-02-03T15:31:51.328Z,98.20
2019-02-03T15:34:21.296Z,98.20
2019-02-03T15:36:51.108Z,98.00
2019-02-03T15:39:20.889Z,97.90
2019-02-03T15:41:50.896Z,97.80
2019-02-03T15:44:20.508Z,98.30
2019-02-03T15:46:50.130Z,97.80
2019-02-03T15:49:19.773Z,98.00
2019-02-03T15:51:49.478Z,98.00
2019-02-03T15:54:19.044Z,97.80
2019-02-03T15:56:48.745Z,97.80
2019-02-03T15:59:18.361Z,98.10
2019-02-03T16:01:49.163Z,98.00
2019-02-03T16:04:18.884Z,98.10
2019-02-03T16:06:48.599Z,98.20
2019-02-03T16:09:18.684Z,98.10
2019-02-03T16:11:48.270Z,98.00
2019-02-03T16:14:18.060Z,98.00
2019-02-03T16:16:47.617Z,97.90
2019-02-03T16:19:17.493Z,97.80
2019-02-03T16:21:47.021Z,97.70
2019-02-03T16:24:16.720Z,98.00
2019-02-03T16:26:46.341Z,97.90
2019-02-03T16:29:16.061Z,98.00
2019-02-03T16:31:45.673Z,97.80
2019-02-03T16:34:15.573Z,97.70
2019-02-03T16:36:45.150Z,97.90
2019-02-03T16:39:14.960Z,97.50
2019-02-03T16:41:44.472Z,97.60
2019-02-03T16:44:15.373Z,97.70
2019-02-03T16:46:45.080Z,97.20
2019-02-03T16:49:16.711Z,97.20
2019-02-03T16:51:48.171Z,97.50
2019-02-03T16:54:18.454Z,97.50
2019-02-03T16:56:48.408Z,97.50
2019-02-03T16:59:17.964Z,97.60
2019-02-03T17:01:47.609Z,97.60
2019-02-03T17:04:17.506Z,97.60
2019-02-03T17:06:47.686Z,97.60
2019-02-03T17:09:17.597Z,97.40
2019-02-03T17:11:47.393Z,97.60
2019-02-03T17:14:17.153Z,97.60
2019-02-03T17:16:47.081Z,97.50
2019-02-03T17:19:16.663Z,97.70
2019-02-03T17:21:46.454Z,97.60
2019-02-03T17:24:16.169Z,97.60
2019-02-03T17:26:45.915Z,97.70
2019-02-03T17:29:15.574Z,97.50
2019-02-03T17:31:45.205Z,97.70
2019-02-03T17:34:14.889Z,97.60
2019-02-03T17:36:48.299Z,97.50
2019-02-03T17:39:20.688Z,97.50
2019-02-03T17:41:50.383Z,97.40
2019-02-03T17:44:20.387Z,97.30
2019-02-03T17:46:50.204Z,97.30
2019-02-03T17:49:19.793Z,97.50
2019-02-03T17:51:49.401Z,97.50
2019-02-03T17:54:19.072Z,97.60
2019-02-03T17:56:48.973Z,97.60
2019-02-03T17:59:18.657Z,97.50
2019-02-03T18:01:48.296Z,97.50
2019-02-03T18:04:17.968Z,97.30
2019-02-03T18:06:47.544Z,97.40
2019-02-03T18:09:17.391Z,97.30
2019-02-03T18:11:46.976Z,97.50
2019-02-03T18:14:24.173Z,97.40
2019-02-03T18:16:48.297Z,97.60
2019-02-03T18:19:18.023Z,97.40
2019-02-03T18:21:48.571Z,97.40
2019-02-03T18:24:18.476Z,97.20
2019-02-03T18:26:48.192Z,97.10
2019-02-03T18:29:17.808Z,97.30
2019-02-03T18:31:47.549Z,97.30
2019-02-03T18:34:17.221Z,97.20
2019-02-03T18:36:47.449Z,97.00
2019-02-03T18:39:17.104Z,97.10
2019-02-03T18:41:46.742Z,97.20
2019-02-03T18:44:17.400Z,97.20
2019-02-03T18:46:47.124Z,97.10
2019-02-03T18:49:16.701Z,97.10
2019-02-03T18:51:47.011Z,97.20
2019-02-03T18:54:17.172Z,97.10
2019-02-03T18:56:46.874Z,97.10
2019-02-03T18:59:16.554Z,97.10
2019-02-03T19:01:46.336Z,97.10
2019-02-03T19:04:17.854Z,97.10
2019-02-03T19:06:47.627Z,97.20
2019-02-03T19:09:17.432Z,97.00
2019-02-03T19:11:47.006Z,97.20
2019-02-03T19:14:16.687Z,97.00
2019-02-03T19:16:46.236Z,97.00
2019-02-03T19:19:15.966Z,97.20
2019-02-03T19:21:45.547Z,97.30
2019-02-03T19:24:15.607Z,97.00
2019-02-03T19:26:45.200Z,97.00
2019-02-03T19:29:15.112Z,97.20
2019-02-03T19:31:46.032Z,97.20
2019-02-03T19:34:15.854Z,97.10
2019-02-03T19:36:45.468Z,97.10
2019-02-03T19:39:15.104Z,97.10
2019-02-03T19:41:44.692Z,97.20
2019-02-03T19:44:14.605Z,97.20
2019-02-03T19:46:44.148Z,97.00
2019-02-03T19:49:16.469Z,97.10
2019-02-03T19:51:46.141Z,97.20
2019-02-03T19:54:16.851Z,97.10
2019-02-03T19:56:46.392Z,97.20
2019-02-03T19:59:16.164Z,97.30
2019-02-03T20:01:45.748Z,97.30
2019-02-03T20:04:15.508Z,97.20
2019-02-03T20:06:45.061Z,97.20
2019-02-03T20:09:15.050Z,97.30
2019-02-03T20:11:44.883Z,97.10
2019-02-03T20:14:14.975Z,97.30
2019-02-03T20:16:44.591Z,97.20
2019-02-03T20:19:14.396Z,97.20
2019-02-03T20:21:43.922Z,97.30
2019-02-03T20:24:14.510Z,97.20
2019-02-03T20:26:44.142Z,97.30
2019-02-03T20:29:14.881Z,97.30
2019-02-03T20:31:44.385Z,97.30
2019-02-03T20:34:14.352Z,97.20
2019-02-03T20:36:44.150Z,97.20
2019-02-03T20:39:14.071Z,97.30
2019-02-03T20:41:43.764Z,97.30
2019-02-03T20:44:13.392Z,97.60
2019-02-03T20:46:43.360Z,97.40
2019-02-03T20:49:12.980Z,97.30
2019-02-03T20:51:42.660Z,97.40
2019-02-03T20:54:12.316Z,97.40
2019-02-03T20:56:42.052Z,97.40
2019-02-03T20:59:11.888Z,97.20
2019-02-03T21:01:41.533Z,97.40
2019-02-03T21:04:11.393Z,97.20
2019-02-03T21:06:41.405Z,97.30
2019-02-03T21:09:11.374Z,97.30
2019-02-03T21:11:41.079Z,97.40
2019-02-03T21:14:10.728Z,97.30
2019-02-03T21:16:40.659Z,97.40
2019-02-03T21:19:10.363Z,97.40
2019-02-03T21:21:39.901Z,97.40
2019-02-03T21:24:09.959Z,97.40
2019-02-03T21:26:39.503Z,97.20
2019-02-03T21:29:09.147Z,97.30
2019-02-03T21:31:38.708Z,97.30
2019-02-03T21:34:08.558Z,97.50
2019-02-03T21:36:38.143Z,97.30
2019-02-03T21:39:09.579Z,97.20
2019-02-03T21:41:39.165Z,97.00
2019-02-03T21:44:08.784Z,97.20
2019-02-03T21:46:38.363Z,97.20
2019-02-03T21:49:08.053Z,97.30
2019-02-03T21:51:38.067Z,97.10
2019-02-03T21:54:08.776Z,97.10
2019-02-03T21:56:38.340Z,97.10
2019-02-03T21:59:07.980Z,97.30
2019-02-03T22:01:37.765Z,97.40
2019-02-03T22:04:07.314Z,97.10
2019-02-03T22:06:37.091Z,97.20
2019-02-03T22:09:08.787Z,97.30
2019-02-03T22:11:38.461Z,97.20
2019-02-03T22:14:08.460Z,97.10
2019-02-03T22:16:38.167Z,97.20
2019-02-03T22:19:08.747Z,97.10
2019-02-03T22:21:38.674Z,97.20
2019-02-03T22:24:08.306Z,97.10
2019-02-03T22:26:38.062Z,97.10
2019-02-03T22:29:07.761Z,97.40
2019-02-03T22:31:37.345Z,97.10
2019-02-03T22:34:07.077Z,96.70
2019-02-03T22:36:36.783Z,97.20
2019-02-03T22:39:08.789Z,97.00
2019-02-03T22:41:38.357Z,97.10
2019-02-03T22:44:08.003Z,97.00
2019-02-03T22:46:37.584Z,96.90
2019-02-03T22:49:07.638Z,97.00
2019-02-03T22:51:37.164Z,96.80
2019-02-03T22:54:07.160Z,96.90
2019-02-03T22:56:36.672Z,97.00
2019-02-03T22:59:06.831Z,97.00
2019-02-03T23:01:38.050Z,96.80
2019-02-03T23:04:22.704Z,97.00
2019-02-03T23:06:52.332Z,96.90
2019-02-03T23:09:34.312Z,97.00
2019-02-03T23:12:06.376Z,96.90
2019-02-03T23:14:36.078Z,97.00
2019-02-03T23:17:06.280Z,96.90
2019-02-03T23:19:35.960Z,96.70
2019-02-03T23:22:05.668Z,96.90
2019-02-03T23:24:35.215Z,96.80
2019-02-03T23:27:05.035Z,96.70
2019-02-03T23:29:34.891Z,96.80
2019-02-03T23:32:04.666Z,96.80
2019-02-03T23:34:34.206Z,96.80
2019-02-03T23:37:03.844Z,96.70
2019-02-03T23:39:33.455Z,96.60
2019-02-03T23:42:03.114Z,96.60
2019-02-03T23:44:32.670Z,96.60
2019-02-03T23:47:02.215Z,96.70
2019-02-03T23:49:31.936Z,96.60
2019-02-03T23:52:01.478Z,96.60
2019-02-03T23:54:31.135Z,96.60
2019-02-03T23:57:01.481Z,96.80
2019-02-03T23:59:31.192Z,96.80
